createdAt,value
2022-10-03T01:54:25.054Z,7.50
2022-10-03T01:59:27.301Z,7.50
2022-10-03T02:04:26.840Z,7.80
2022-10-03T02:09:24.948Z,8.00
2022-10-03T02:14:24.844Z,7.90
2022-10-03T02:19:24.766Z,7.80
2022-10-03T02:24:41.125Z,8.70
2022-10-03T02:29:25.671Z,8.70
2022-10-03T02:34:33.091Z,8.20
2022-10-03T02:39:24.440Z,9.20
2022-10-03T02:44:24.920Z,9.00
2022-10-03T02:49:24.362Z,9.20
2022-10-03T02:54:24.766Z,8.20
2022-10-03T02:59:24.258Z,8.30
2022-10-03T03:04:24.321Z,8.60
2022-10-03T03:09:24.067Z,8.40
2022-10-03T03:14:23.998Z,8.20
2022-10-03T03:19:23.982Z,9.30
2022-10-03T03:24:23.920Z,9.60
2022-10-03T03:29:24.029Z,9.40
2022-10-03T03:34:23.800Z,9.50
2022-10-03T03:39:24.856Z,11.50
2022-10-03T03:44:23.793Z,10.50
2022-10-03T03:49:23.725Z,10.00
2022-10-03T03:54:23.663Z,10.40
2022-10-03T03:59:23.548Z,11.20
2022-10-03T04:04:23.611Z,12.10
2022-10-03T04:09:23.594Z,10.70
2022-10-03T04:14:23.511Z,13.40
2022-10-03T04:19:23.445Z,13.60
2022-10-03T04:24:23.394Z,12.30
2022-10-03T04:29:23.228Z,13.10
2022-10-03T04:34:23.186Z,14.00
2022-10-03T04:39:23.099Z,12.30
2022-10-03T04:44:23.025Z,12.50
2022-10-03T04:49:22.975Z,13.50
2022-10-03T04:54:22.937Z,15.40
2022-10-03T04:59:22.853Z,13.80
2022-10-03T05:04:22.807Z,14.80
2022-10-03T05:09:22.746Z,16.40
2022-10-03T05:14:22.698Z,15.70
2022-10-03T05:19:22.737Z,16.50
2022-10-03T05:24:22.783Z,17.00
2022-10-03T05:29:22.720Z,19.60
2022-10-03T05:34:22.661Z,18.90
2022-10-03T05:39:22.595Z,20.80
2022-10-03T05:44:22.426Z,20.60
2022-10-03T05:49:22.360Z,23.00
2022-10-03T05:54:22.251Z,21.70
2022-10-03T05:59:22.205Z,21.80
2022-10-03T06:04:22.240Z,27.60
2022-10-03T06:09:22.103Z,23.30
2022-10-03T06:14:22.211Z,25.20
2022-10-03T06:19:22.115Z,31.80
2022-10-03T06:24:22.035Z,27.50
2022-10-03T06:29:22.014Z,28.00
2022-10-03T06:34:22.939Z,29.80
2022-10-03T06:39:21.870Z,24.90
2022-10-03T06:44:21.891Z,26.50
2022-10-03T06:49:21.790Z,25.90
2022-10-03T06:54:21.625Z,30.10
2022-10-03T06:59:21.572Z,23.00
2022-10-03T07:04:21.527Z,23.80
2022-10-03T07:09:21.442Z,28.40
2022-10-03T07:14:22.029Z,24.40
2022-10-03T07:19:21.411Z,25.60
2022-10-03T07:24:21.339Z,24.70
2022-10-03T07:29:21.294Z,27.50
2022-10-03T07:34:21.202Z,23.70
2022-10-03T07:39:21.160Z,26.10
2022-10-03T07:44:21.067Z,23.50
2022-10-03T07:49:21.057Z,24.20
2022-10-03T07:54:20.996Z,24.40
2022-10-03T07:59:21.031Z,22.40
2022-10-03T08:04:20.895Z,22.20
2022-10-03T08:09:21.017Z,23.20
2022-10-03T08:14:20.867Z,22.40
2022-10-03T08:19:20.893Z,21.10
2022-10-03T08:24:20.756Z,18.80
2022-10-03T08:29:20.687Z,19.20
2022-10-03T08:36:50.719Z,15.70
2022-10-03T08:41:50.671Z,16.10
2022-10-03T08:46:50.701Z,14.50
2022-10-03T08:51:50.594Z,13.40
2022-10-03T08:56:50.488Z,13.60
2022-10-03T09:01:50.609Z,12.70
2022-10-03T09:07:12.568Z,11.30
2022-10-03T09:11:52.436Z,10.90
2022-10-03T09:16:50.269Z,9.80
2022-10-03T09:21:50.196Z,6.10
2022-10-03T09:26:50.198Z,5.60
2022-10-03T09:31:50.240Z,5.50
2022-10-03T09:36:51.162Z,4.80
2022-10-03T09:41:49.989Z,5.10
2022-10-03T09:46:50.008Z,4.20
2022-10-03T09:51:49.980Z,4.20
2022-10-03T09:56:49.844Z,4.00
2022-10-03T10:01:49.977Z,3.70
2022-10-03T10:06:49.922Z,3.20
2022-10-03T10:11:50.251Z,3.30
2022-10-03T10:16:51.095Z,2.60
2022-10-03T10:21:49.637Z,2.90
2022-10-03T10:26:49.523Z,3.20
2022-10-03T10:31:49.491Z,2.50
2022-10-03T10:36:49.402Z,3.20
2022-10-03T10:41:49.310Z,2.30
2022-10-03T10:46:49.314Z,2.30
2022-10-03T10:51:49.232Z,2.80
2022-10-03T10:56:49.249Z,2.10
2022-10-03T11:01:49.099Z,2.30
2022-10-03T11:06:49.027Z,1.90
2022-10-03T11:11:48.973Z,2.20
2022-10-03T11:16:48.988Z,2.50
2022-10-03T11:21:48.886Z,2.30
2022-10-03T11:26:49.965Z,2.80
2022-10-03T11:31:48.940Z,2.70
2022-10-03T11:36:48.794Z,2.60
2022-10-03T11:41:48.634Z,2.70
2022-10-03T11:46:48.608Z,2.40
2022-10-03T11:51:53.422Z,2.90
2022-10-03T11:56:49.491Z,2.30
2022-10-03T12:01:51.398Z,2.10
2022-10-03T12:06:48.536Z,2.50
2022-10-03T12:11:48.383Z,2.30
2022-10-03T12:16:48.412Z,2.60
2022-10-03T12:21:48.224Z,2.30
2022-10-03T12:26:49.522Z,2.50
2022-10-03T12:31:48.321Z,2.00
2022-10-03T12:36:48.294Z,2.40
2022-10-03T12:41:48.203Z,2.30
2022-10-03T12:46:48.099Z,2.80
2022-10-03T12:51:47.996Z,3.10
2022-10-03T12:56:47.982Z,3.10
2022-10-03T13:01:47.932Z,2.70
2022-10-03T13:07:04.533Z,3.10
2022-10-03T13:11:48.765Z,2.70
2022-10-03T13:16:48.658Z,3.10
2022-10-03T13:21:47.717Z,2.70
2022-10-03T13:26:47.554Z,2.50
2022-10-03T13:31:47.594Z,2.70
2022-10-03T13:36:47.504Z,2.10
2022-10-03T13:41:47.664Z,2.50
2022-10-03T13:46:48.526Z,2.40
2022-10-03T13:51:48.482Z,1.80
2022-10-03T13:56:47.269Z,2.40
2022-10-03T14:01:47.429Z,2.20
2022-10-03T14:06:47.152Z,1.70
2022-10-03T14:11:47.124Z,2.40
2022-10-03T14:16:48.171Z,2.30
2022-10-03T14:21:47.186Z,2.10
2022-10-03T14:26:46.966Z,2.50
2022-10-03T14:31:48.166Z,2.30
2022-10-03T16:43:39.804Z,2.80
2022-10-03T16:48:39.774Z,2.70
2022-10-03T16:53:39.826Z,2.30
2022-10-03T16:58:39.737Z,3.60
2022-10-03T17:03:39.678Z,2.70
2022-10-03T17:08:42.383Z,2.90
2022-10-03T17:13:39.483Z,2.50
2022-10-03T17:18:39.474Z,3.80
2022-10-03T17:23:39.394Z,3.40
2022-10-03T17:28:39.459Z,2.80
2022-10-03T17:33:39.315Z,3.20
2022-10-03T17:38:49.672Z,3.20
2022-10-03T17:43:40.253Z,3.60
2022-10-03T17:48:39.129Z,3.80
2022-10-03T17:53:39.202Z,4.10
2022-10-03T17:58:39.146Z,4.90
2022-10-03T18:03:40.092Z,4.30
2022-10-03T18:08:39.033Z,12.80
2022-10-03T18:13:38.939Z,12.50
2022-10-03T18:18:38.848Z,9.00
2022-10-03T18:23:54.156Z,12.60
2022-10-03T18:28:39.919Z,9.10
2022-10-03T18:33:38.758Z,8.80
2022-10-03T18:38:38.648Z,9.20
2022-10-03T18:43:38.541Z,9.00
2022-10-03T18:48:38.462Z,7.20
2022-10-03T18:53:38.460Z,9.10
2022-10-03T18:58:38.339Z,4.50
2022-10-03T19:03:38.302Z,5.90
2022-10-03T19:08:38.268Z,4.50
2022-10-03T19:13:38.298Z,4.90
2022-10-03T19:18:38.206Z,5.40
2022-10-03T19:23:38.095Z,5.00
2022-10-03T19:28:38.141Z,7.00
2022-10-03T19:33:38.057Z,11.30
2022-10-03T19:38:37.964Z,6.10
2022-10-03T19:43:37.911Z,6.90
2022-10-03T19:48:37.803Z,6.10
2022-10-03T19:53:37.939Z,8.10
2022-10-03T19:58:37.682Z,7.40
2022-10-03T20:03:37.735Z,7.90
2022-10-03T20:08:37.673Z,8.30
2022-10-03T20:13:37.661Z,7.20
2022-10-03T20:18:39.659Z,6.80
2022-10-03T20:23:37.493Z,6.70
2022-10-03T20:28:39.417Z,6.40
2022-10-03T20:33:37.677Z,7.50
2022-10-03T20:38:37.348Z,10.10
2022-10-03T20:43:41.233Z,8.80
2022-10-03T20:48:37.165Z,12.50
2022-10-03T20:53:37.490Z,16.10
2022-10-03T20:58:37.071Z,12.30
2022-10-03T21:03:37.178Z,10.10
2022-10-03T21:08:37.050Z,9.50
2022-10-03T21:13:37.096Z,10.20
2022-10-03T21:18:36.944Z,7.90
2022-10-03T21:23:46.736Z,7.20
2022-10-03T21:28:36.849Z,8.30
2022-10-03T21:33:36.612Z,8.40
2022-10-03T21:38:36.534Z,7.40
2022-10-03T21:43:36.484Z,9.60
2022-10-03T21:48:36.433Z,9.30
2022-10-03T21:53:36.484Z,9.00
2022-10-03T21:58:36.423Z,9.20
2022-10-03T22:03:37.335Z,9.30
2022-10-03T22:08:36.327Z,8.30
2022-10-03T22:13:36.243Z,9.70
2022-10-03T22:18:36.208Z,9.10
2022-10-03T22:23:36.050Z,11.00
2022-10-03T22:28:36.057Z,9.60
2022-10-03T22:33:35.939Z,9.80
2022-10-03T22:38:35.881Z,10.70
2022-10-03T22:43:35.796Z,10.10
2022-10-03T22:48:35.768Z,8.80
2022-10-03T22:53:35.744Z,9.60
2022-10-03T22:58:35.700Z,8.10
2022-10-03T23:03:35.692Z,7.50
2022-10-03T23:08:35.653Z,8.70
2022-10-03T23:13:35.595Z,7.70
2022-10-03T23:18:35.622Z,8.00
2022-10-03T23:23:36.640Z,8.00
2022-10-03T23:28:35.367Z,8.10
2022-10-03T23:33:35.311Z,9.30
2022-10-03T23:38:35.182Z,9.20
2022-10-03T23:43:35.154Z,8.70
2022-10-03T23:48:35.101Z,8.60
2022-10-03T23:53:35.141Z,8.00
2022-10-03T23:58:35.113Z,8.40
